Time;durP1;ratioP1;P1;durP2;ratioP2;P2;SDS_P1;SDS_P2;PMS_P1;PMS_P2;Temp;Humidity;BMP_temperature;BMP_pressure;BME280_temperature;BME280_humidity;BME280_pressure;Samples;Min_cycle;Max_cycle;Signal;HPM_P1;HPM_P2
2023/10/28 00:01:36;;;;;;;;;;;;;;;12.03;54.96;98787.38;5001047;27;98301;-64
2023/10/28 00:04:04;;;;;;;;;;;;;;;12.03;54.92;98798.19;4969106;27;99626;-71
2023/10/28 00:06:31;;;;;;;;;;;;;;;12.03;54.94;98806.28;5002210;27;98371;-65
2023/10/28 00:08:58;;;;;;;;;;;;;;;12.03;55.12;98808.97;5017078;27;98923;-66
2023/10/28 00:11:27;;;;;;;;;;;;;;;12.03;55.03;98803.56;4963752;27;100156;-65
2023/10/28 00:13:53;;;;;;;;;;;;;;;12.04;54.72;98804.38;5016722;27;98338;-65
2023/10/28 00:16:19;;;;;;;;;;;;;;;12.04;54.99;98807.84;4994565;27;98030;-70
2023/10/28 00:18:46;;;;;;;;;;;;;;;12.06;55.15;98801.34;5014991;27;100238;-70
2023/10/28 00:21:12;;;;;;;;;;;;;;;12.05;54.90;98803.25;4968848;27;98162;-71
2023/10/28 00:23:38;;;;;;;;;;;;;;;12.06;55.15;98804.03;4957756;27;98574;-65
2023/10/28 00:26:05;;;;;;;;;;;;;;;12.06;54.92;98804.84;4980381;27;100023;-71
2023/10/28 00:28:35;;;;;;;;;;;;;;;12.06;55.08;98796.72;4979941;27;98737;-65
2023/10/28 00:31:02;;;;;;;;;;;;;;;12.07;55.09;98801.03;4970896;27;98726;-65
2023/10/28 00:33:29;;;;;;;;;;;;;;;12.07;54.83;98798.34;4968051;27;98182;-65
2023/10/28 00:35:55;;;;;;;;;;;;;;;12.07;54.86;98805.66;5011597;27;98789;-71
2023/10/28 00:38:22;;;;;;;;;;;;;;;12.07;54.90;98803.75;5016752;27;99314;-71
2023/10/28 00:40:49;;;;;;;;;;;;;;;12.08;54.99;98807.22;5014148;27;98304;-71
2023/10/28 00:43:21;;;;;;;;;;;;;;;12.08;54.95;98804.53;4982350;27;98536;-64
2023/10/28 00:45:47;;;;;;;;;;;;;;;12.07;55.08;98803.75;4996548;27;98915;-64
2023/10/28 00:48:15;;;;;;;;;;;;;;;12.07;54.94;98795.63;4995014;27;98236;-65
2023/10/28 00:50:42;;;;;;;;;;;;;;;12.08;54.96;98810.72;4994007;27;99524;-71
2023/10/28 00:53:08;;;;;;;;;;;;;;;12.08;54.94;98813.44;4982522;27;98360;-71
2023/10/28 00:55:34;;;;;;;;;;;;;;;12.07;55.00;98814.53;4981925;27;98054;-65
2023/10/28 00:58:01;;;;;;;;;;;;;;;12.09;55.05;98816.91;4977017;27;99394;-65
2023/10/28 01:00:29;;;;;;;;;;;;;;;12.08;55.04;98818.81;4981441;27;99429;-71
2023/10/28 01:02:55;;;;;;;;;;;;;;;12.09;55.04;98814.22;4980919;27;98913;-71
2023/10/28 01:05:22;;;;;;;;;;;;;;;12.08;55.13;98812.63;4980745;27;98232;-71
2023/10/28 01:07:49;;;;;;;;;;;;;;;12.08;55.00;98809.94;4998570;27;98175;-71
2023/10/28 01:10:28;;;;;;;;;;;;;;;12.08;54.94;98808.03;4981069;27;101017;-71
2023/10/28 01:12:55;;;;;;;;;;;;;;;12.09;55.03;98814.22;4981700;27;98255;-65
2023/10/28 01:15:22;;;;;;;;;;;;;;;12.10;54.99;98810.41;4965238;27;98373;-65
2023/10/28 01:17:49;;;;;;;;;;;;;;;12.14;55.00;98809.44;4981658;27;99235;-71
2023/10/28 01:20:15;;;;;;;;;;;;;;;12.21;55.21;98806.28;4998793;27;98970;-71
2023/10/28 01:22:42;;;;;;;;;;;;;;;12.28;55.12;98812.00;4993688;27;98326;-65
2023/10/28 01:25:09;;;;;;;;;;;;;;;12.34;55.07;98812.63;4981897;27;98301;-65
2023/10/28 01:27:36;;;;;;;;;;;;;;;12.39;54.86;98810.56;4960988;27;98300;-71
2023/10/28 01:30:05;;;;;;;;;;;;;;;12.43;55.12;98818.84;5016532;27;98526;-72
2023/10/28 01:32:31;;;;;;;;;;;;;;;12.46;54.86;98826.31;4995759;27;98123;-71
2023/10/28 01:34:58;;;;;;;;;;;;;;;12.48;54.96;98832.97;4983527;27;98846;-72
2023/10/28 01:37:24;;;;;;;;;;;;;;;12.51;55.10;98835.03;4960786;27;99700;-65
2023/10/28 01:39:54;;;;;;;;;;;;;;;12.53;55.19;98832.00;4963885;27;98216;-72
2023/10/28 01:42:21;;;;;;;;;;;;;;;12.54;55.12;98836.31;4978879;27;98297;-65
2023/10/28 01:44:48;;;;;;;;;;;;;;;12.54;55.20;98839.03;5010398;27;98480;-65
2023/10/28 01:47:14;;;;;;;;;;;;;;;12.56;54.93;98836.00;4978065;27;98287;-65
2023/10/28 01:49:42;;;;;;;;;;;;;;;12.56;54.98;98839.47;4982627;27;99192;-65
2023/10/28 01:52:10;;;;;;;;;;;;;;;12.57;55.10;98832.16;4981315;27;99343;-72
2023/10/28 01:54:37;;;;;;;;;;;;;;;12.56;54.94;98836.78;4980187;27;98619;-71
2023/10/28 01:57:07;;;;;;;;;;;;;;;12.58;55.02;98836.47;4980730;27;99614;-71
2023/10/28 01:59:37;;;;;;;;;;;;;;;12.56;54.97;98836.00;4977977;27;98416;-65
2023/10/28 02:02:03;;;;;;;;;;;;;;;12.56;55.19;98841.41;4983405;27;98257;-71
2023/10/28 02:04:32;;;;;;;;;;;;;;;12.55;55.20;98843.31;4997552;27;99148;-64
2023/10/28 02:07:00;;;;;;;;;;;;;;;12.55;55.16;98837.13;4993217;27;98225;-65
2023/10/28 02:09:26;;;;;;;;;;;;;;;12.54;55.30;98839.03;4960392;27;100077;-65
2023/10/28 02:11:53;;;;;;;;;;;;;;;12.53;55.07;98834.72;4963138;27;98541;-65
2023/10/28 02:14:22;;;;;;;;;;;;;;;12.52;55.20;98836.63;4999583;27;98269;-66
2023/10/28 02:16:49;;;;;;;;;;;;;;;12.51;55.21;98837.75;4983895;27;98198;-72
2023/10/28 02:19:17;;;;;;;;;;;;;;;12.51;55.29;98843.16;4981998;27;98791;-71
2023/10/28 02:21:44;;;;;;;;;;;;;;;12.48;55.19;98843.78;4960536;27;99920;-65
2023/10/28 02:24:10;;;;;;;;;;;;;;;12.46;55.17;98843.31;4985033;27;97934;-71
2023/10/28 02:26:37;;;;;;;;;;;;;;;12.46;55.20;98856.84;4995564;27;99576;-65
2023/10/28 02:29:06;;;;;;;;;;;;;;;12.44;55.30;98859.03;4998967;27;98214;-64
2023/10/28 02:31:34;;;;;;;;;;;;;;;12.43;55.31;98857.47;4965711;27;98192;-71
2023/10/28 02:34:00;;;;;;;;;;;;;;;12.41;55.06;98856.97;4998544;27;97978;-71
2023/10/28 02:36:27;;;;;;;;;;;;;;;12.40;55.24;98857.31;4962646;27;98392;-65
2023/10/28 02:38:54;;;;;;;;;;;;;;;12.38;55.28;98854.94;4996019;27;98799;-65
2023/10/28 02:41:20;;;;;;;;;;;;;;;12.37;55.08;98864.13;4964318;27;99969;-64
2023/10/28 02:43:46;;;;;;;;;;;;;;;12.36;55.44;98865.25;4981586;27;98025;-64
2023/10/28 02:46:23;;;;;;;;;;;;;;;12.36;55.06;98864.44;5009026;27;99630;-65
2023/10/28 02:48:49;;;;;;;;;;;;;;;12.35;55.35;98870.97;4987905;27;99891;-71
2023/10/28 02:51:15;;;;;;;;;;;;;;;12.33;55.14;98868.56;4976000;27;100808;-66
2023/10/28 02:53:42;;;;;;;;;;;;;;;12.32;55.22;98867.00;4961985;27;100362;-72
2023/10/28 02:56:08;;;;;;;;;;;;;;;12.31;55.17;98868.09;4965999;27;98381;-70
2023/10/28 02:58:35;;;;;;;;;;;;;;;12.31;55.11;98873.50;4979891;27;98438;-65
2023/10/28 03:01:11;;;;;;;;;;;;;;;12.29;55.32;98873.81;5001293;27;98334;-65
2023/10/28 03:03:37;;;;;;;;;;;;;;;12.28;55.33;98877.63;4994217;27;98073;-71
2023/10/28 03:06:04;;;;;;;;;;;;;;;12.27;55.19;98875.25;4996266;27;98107;-71
2023/10/28 03:08:30;;;;;;;;;;;;;;;12.27;55.13;98877.97;4980690;27;98223;-64
2023/10/28 03:10:56;;;;;;;;;;;;;;;12.26;55.12;98879.06;4958548;27;99239;-65
2023/10/28 03:13:23;;;;;;;;;;;;;;;12.24;54.92;98876.69;4998396;27;98008;-67
2023/10/28 03:15:50;;;;;;;;;;;;;;;12.24;55.25;98881.28;4987111;27;98173;-65
2023/10/28 03:18:16;;;;;;;;;;;;;;;12.22;55.15;98887.00;5015636;27;98302;-65
2023/10/28 03:20:42;;;;;;;;;;;;;;;12.20;55.00;98878.41;4991910;27;98743;-64
2023/10/28 03:23:09;;;;;;;;;;;;;;;12.19;55.27;98876.84;4983624;27;98037;-65
2023/10/28 03:25:36;;;;;;;;;;;;;;;12.18;55.20;98874.44;4999375;27;98989;-71
2023/10/28 03:28:02;;;;;;;;;;;;;;;12.17;55.20;98878.25;5012344;27;99571;-71
2023/10/28 03:30:28;;;;;;;;;;;;;;;12.16;55.25;98879.38;4995956;27;99504;-64
2023/10/28 03:32:55;;;;;;;;;;;;;;;12.15;55.33;98892.09;4978488;27;107597;-71
2023/10/28 03:35:21;;;;;;;;;;;;;;;12.13;54.97;98888.88;4978381;27;98902;-71
2023/10/28 03:37:48;;;;;;;;;;;;;;;12.11;55.10;98888.44;4976083;27;98124;-65
2023/10/28 03:40:14;;;;;;;;;;;;;;;12.10;55.23;98880.63;4980291;27;99486;-65
2023/10/28 03:42:42;;;;;;;;;;;;;;;12.10;55.05;98888.72;4996164;27;99822;-64
2023/10/28 03:45:08;;;;;;;;;;;;;;;12.08;55.18;98891.75;4982648;27;98612;-71
2023/10/28 03:47:35;;;;;;;;;;;;;;;12.06;55.24;98893.94;4981018;27;98081;-72
2023/10/28 03:50:02;;;;;;;;;;;;;;;12.06;55.24;98893.16;4978133;27;99451;-65
2023/10/28 03:52:28;;;;;;;;;;;;;;;12.03;55.15;98897.31;4996715;27;98878;-71
2023/10/28 03:54:57;;;;;;;;;;;;;;;12.02;55.40;98901.91;4964311;27;112062;-72
2023/10/28 03:57:23;;;;;;;;;;;;;;;12.00;55.30;98904.13;4983962;27;98389;-65
2023/10/28 03:59:49;;;;;;;;;;;;;;;11.99;55.10;98897.13;5001017;27;105602;-71
2023/10/28 04:02:16;;;;;;;;;;;;;;;11.98;55.27;98908.22;4996443;27;98273;-71
2023/10/28 04:04:43;;;;;;;;;;;;;;;11.95;55.16;98904.28;4988711;27;98382;-65
2023/10/28 04:07:10;;;;;;;;;;;;;;;11.95;55.16;98903.47;4985743;27;98740;-65
2023/10/28 04:09:37;;;;;;;;;;;;;;;11.93;55.20;98906.47;4965633;27;99249;-71
2023/10/28 04:12:05;;;;;;;;;;;;;;;11.92;55.51;98906.81;4966279;27;98236;-64
2023/10/28 04:14:32;;;;;;;;;;;;;;;11.90;55.16;98904.41;4987871;27;98296;-72
2023/10/28 04:16:59;;;;;;;;;;;;;;;11.89;55.27;98907.41;4986586;27;98416;-65
2023/10/28 04:19:26;;;;;;;;;;;;;;;11.87;55.34;98907.75;4998520;27;98363;-65
2023/10/28 04:21:54;;;;;;;;;;;;;;;11.85;55.17;98907.25;4993924;27;97911;-65
2023/10/28 04:24:20;;;;;;;;;;;;;;;11.86;55.25;98918.84;4980372;27;98166;-71
2023/10/28 04:26:46;;;;;;;;;;;;;;;11.85;55.59;98915.34;4961045;27;98094;-65
2023/10/28 04:29:13;;;;;;;;;;;;;;;11.84;55.25;98915.69;4966512;27;98087;-64
2023/10/28 04:31:40;;;;;;;;;;;;;;;11.84;55.18;98918.38;4989781;27;99089;-65
2023/10/28 04:34:07;;;;;;;;;;;;;;;11.83;55.27;98919.44;4997648;27;99061;-65
2023/10/28 04:36:33;;;;;;;;;;;;;;;11.81;55.13;98911.66;4969499;27;98280;-65
2023/10/28 04:39:00;;;;;;;;;;;;;;;11.80;55.60;98916.25;4988757;27;98664;-72
2023/10/28 04:41:26;;;;;;;;;;;;;;;11.79;55.23;98922.78;5009858;27;97752;-66
2023/10/28 04:43:52;;;;;;;;;;;;;;;11.79;55.16;98927.38;5003351;27;98931;-71
2023/10/28 04:46:18;;;;;;;;;;;;;;;11.78;55.15;98931.16;5000762;27;98212;-71
2023/10/28 04:48:46;;;;;;;;;;;;;;;11.76;55.30;98928.78;4961484;27;98113;-71
2023/10/28 04:51:13;;;;;;;;;;;;;;;11.76;55.17;98925.31;4969195;27;97905;-65
2023/10/28 04:53:39;;;;;;;;;;;;;;;11.75;55.35;98926.38;4994804;27;98264;-71
2023/10/28 04:56:09;;;;;;;;;;;;;;;11.75;55.17;98937.19;4983366;27;98070;-65
2023/10/28 04:58:35;;;;;;;;;;;;;;;11.74;55.27;98935.59;5009492;27;98202;-72
2023/10/28 05:01:01;;;;;;;;;;;;;;;11.74;55.18;98943.69;4998152;27;98428;-71
2023/10/28 05:03:28;;;;;;;;;;;;;;;11.73;55.23;98947.50;4977996;27;98871;-65
2023/10/28 05:05:55;;;;;;;;;;;;;;;11.72;55.17;98948.63;4968247;27;98296;-65
2023/10/28 05:08:22;;;;;;;;;;;;;;;11.70;55.22;98954.31;4978954;27;99286;-65
2023/10/28 05:10:48;;;;;;;;;;;;;;;11.70;55.20;98957.03;4964907;27;102136;-72
2023/10/28 05:13:14;;;;;;;;;;;;;;;11.68;55.27;98951.16;4994119;27;98856;-65
2023/10/28 05:15:41;;;;;;;;;;;;;;;11.68;55.19;98947.66;4984703;27;98291;-65
2023/10/28 05:18:07;;;;;;;;;;;;;;;11.67;55.21;98948.75;5000022;27;100569;-65
2023/10/28 05:20:34;;;;;;;;;;;;;;;11.67;55.25;98954.13;4984447;27;98997;-65
2023/10/28 05:23:00;;;;;;;;;;;;;;;11.66;55.10;98947.16;4986580;27;97944;-71
2023/10/28 05:25:26;;;;;;;;;;;;;;;11.65;55.11;98950.97;4983055;27;98000;-71
2023/10/28 05:27:53;;;;;;;;;;;;;;;11.63;55.25;98958.56;4978337;27;98076;-65
2023/10/28 05:30:20;;;;;;;;;;;;;;;11.64;54.97;98952.09;4961592;27;98211;-65
2023/10/28 05:32:46;;;;;;;;;;;;;;;11.63;55.15;98955.88;4967641;27;98332;-72
2023/10/28 05:35:13;;;;;;;;;;;;;;;11.63;55.18;98962.09;4964501;27;98265;-72
2023/10/28 05:37:39;;;;;;;;;;;;;;;11.62;55.11;98963.16;4998607;27;98516;-65
2023/10/28 05:40:10;;;;;;;;;;;;;;;11.63;55.03;98974.75;4979374;27;98240;-72
2023/10/28 05:42:37;;;;;;;;;;;;;;;11.62;54.96;98970.47;4981966;27;99103;-65
2023/10/28 05:45:04;;;;;;;;;;;;;;;11.61;55.28;98967.00;4996309;27;98630;-65
2023/10/28 05:47:30;;;;;;;;;;;;;;;11.62;54.99;98973.19;5007998;27;99896;-65
2023/10/28 05:49:57;;;;;;;;;;;;;;;11.62;55.13;98984.75;4981834;27;98074;-72
2023/10/28 05:52:23;;;;;;;;;;;;;;;11.62;55.16;98979.38;4981367;27;98403;-65
2023/10/28 05:54:50;;;;;;;;;;;;;;;11.63;55.12;98988.25;5018456;27;98186;-71
2023/10/28 05:57:16;;;;;;;;;;;;;;;11.63;55.28;98985.56;4996285;27;99044;-71
2023/10/28 05:59:43;;;;;;;;;;;;;;;11.64;54.95;98984.47;5001345;27;99187;-65
2023/10/28 06:02:09;;;;;;;;;;;;;;;11.64;55.11;99001.47;4995507;27;98316;-72
2023/10/28 06:04:36;;;;;;;;;;;;;;;11.65;55.34;98994.94;5017924;27;98045;-65
2023/10/28 06:07:02;;;;;;;;;;;;;;;11.66;54.85;99004.63;4965008;27;98404;-65
2023/10/28 06:09:29;;;;;;;;;;;;;;;11.68;55.16;99005.13;4968072;27;99524;-65
2023/10/28 06:11:56;;;;;;;;;;;;;;;11.69;55.17;99000.53;4998833;27;98035;-72
2023/10/28 06:14:22;;;;;;;;;;;;;;;11.74;55.02;99005.78;4978567;27;98197;-65
2023/10/28 06:16:49;;;;;;;;;;;;;;;11.77;54.91;99005.16;4976166;27;98920;-72
2023/10/28 06:19:16;;;;;;;;;;;;;;;11.80;54.97;99012.66;4976880;27;98197;-65
2023/10/28 06:21:42;;;;;;;;;;;;;;;11.85;54.96;99017.16;4978087;27;98017;-64
2023/10/28 06:24:08;;;;;;;;;;;;;;;11.88;54.85;99019.25;4981533;27;98054;-65
2023/10/28 06:26:34;;;;;;;;;;;;;;;11.90;54.87;99025.91;4993556;27;98386;-65
2023/10/28 06:29:01;;;;;;;;;;;;;;;11.93;54.83;99017.19;4967256;27;98262;-65
2023/10/28 06:31:27;;;;;;;;;;;;;;;11.96;54.92;99024.69;4974400;27;98450;-72
2023/10/28 06:33:53;;;;;;;;;;;;;;;11.98;54.84;99022.44;4990982;27;98212;-65
2023/10/28 06:36:20;;;;;;;;;;;;;;;12.01;54.79;99026.44;4988988;27;99576;-65
2023/10/28 06:38:48;;;;;;;;;;;;;;;12.02;54.86;99025.31;4963037;27;99453;-65
2023/10/28 06:41:14;;;;;;;;;;;;;;;12.03;54.96;99029.63;4980374;27;98217;-65
2023/10/28 06:43:40;;;;;;;;;;;;;;;12.04;54.81;99034.72;4961035;27;98564;-68
2023/10/28 06:46:06;;;;;;;;;;;;;;;12.06;54.91;99037.09;5005287;27;98416;-72
2023/10/28 06:48:33;;;;;;;;;;;;;;;12.08;54.80;99039.50;4999360;27;103812;-72
2023/10/28 06:50:59;;;;;;;;;;;;;;;12.11;54.71;99036.97;4960401;27;98883;-72
2023/10/28 06:53:26;;;;;;;;;;;;;;;12.15;54.67;99039.84;5010903;27;98045;-65
2023/10/28 06:55:52;;;;;;;;;;;;;;;12.18;54.64;99047.31;4977079;27;98326;-65
2023/10/28 06:58:18;;;;;;;;;;;;;;;12.22;54.83;99050.97;4992070;27;99021;-72
2023/10/28 07:00:45;;;;;;;;;;;;;;;12.26;54.91;99050.06;5009427;27;98599;-66
2023/10/28 07:03:14;;;;;;;;;;;;;;;12.32;54.69;99058.81;4996112;27;98598;-65
2023/10/28 07:05:40;;;;;;;;;;;;;;;12.38;54.58;99056.75;4975848;27;98627;-65
2023/10/28 07:08:07;;;;;;;;;;;;;;;12.45;54.56;99059.81;4978482;27;99271;-72
2023/10/28 07:10:33;;;;;;;;;;;;;;;12.53;54.50;99051.72;5001918;27;98307;-72
2023/10/28 07:12:59;;;;;;;;;;;;;;;12.64;54.16;99059.53;4991363;27;98233;-65
2023/10/28 07:15:26;;;;;;;;;;;;;;;12.71;54.31;99068.78;4968131;27;98917;-72
2023/10/28 07:17:52;;;;;;;;;;;;;;;12.76;54.42;99065.94;4990576;27;98297;-65
2023/10/28 07:20:19;;;;;;;;;;;;;;;12.82;54.50;99063.88;4978047;27;98037;-65
2023/10/28 07:22:46;;;;;;;;;;;;;;;12.87;54.33;99071.84;4974573;27;98093;-65
2023/10/28 07:25:14;;;;;;;;;;;;;;;12.88;54.51;99067.22;4982563;27;98403;-65
2023/10/28 07:27:40;;;;;;;;;;;;;;;12.89;54.40;99074.22;4981694;27;98485;-72
2023/10/28 07:30:10;;;;;;;;;;;;;;;12.90;54.62;99081.25;4998998;27;99275;-65
2023/10/28 07:32:36;;;;;;;;;;;;;;;12.91;54.64;99086.31;5008927;27;98814;-69
2023/10/28 07:35:03;;;;;;;;;;;;;;;12.96;54.76;99079.97;4961992;27;98576;-65
2023/10/28 07:37:29;;;;;;;;;;;;;;;13.02;54.26;99084.13;4995512;27;98720;-72
2023/10/28 07:39:55;;;;;;;;;;;;;;;13.07;54.45;99091.28;4959714;27;99376;-72
2023/10/28 07:42:23;;;;;;;;;;;;;;;13.10;54.45;99099.56;4959029;27;98171;-72
2023/10/28 07:44:51;;;;;;;;;;;;;;;13.16;54.13;99089.38;4990197;27;98852;-72
2023/10/28 07:47:17;;;;;;;;;;;;;;;13.22;54.45;99096.22;4977605;27;99247;-72
2023/10/28 07:49:43;;;;;;;;;;;;;;;13.30;54.49;99100.88;4982308;27;98071;-65
2023/10/28 07:52:09;;;;;;;;;;;;;;;13.40;54.08;99099.75;4966330;27;98313;-72
2023/10/28 07:54:35;;;;;;;;;;;;;;;13.47;54.33;99105.50;4982906;27;98497;-65
2023/10/28 07:57:02;;;;;;;;;;;;;;;13.52;53.94;99099.94;4983066;27;99142;-72
2023/10/28 07:59:29;;;;;;;;;;;;;;;13.60;53.92;99109.97;4962780;27;99217;-65
2023/10/28 08:01:57;;;;;;;;;;;;;;;13.70;53.91;99106.13;4977478;27;101094;-72
2023/10/28 08:04:24;;;;;;;;;;;;;;;13.77;54.03;99111.06;4995063;27;98478;-72
2023/10/28 08:06:51;;;;;;;;;;;;;;;13.81;54.32;99122.84;4997135;27;98858;-65
2023/10/28 08:09:17;;;;;;;;;;;;;;;13.84;54.36;99133.81;4978395;27;99972;-73
2023/10/28 08:11:43;;;;;;;;;;;;;;;13.86;54.05;99128.09;4979512;27;99281;-72
2023/10/28 08:14:10;;;;;;;;;;;;;;;13.88;54.04;99134.78;4978488;27;98080;-72
2023/10/28 08:16:37;;;;;;;;;;;;;;;13.97;54.17;99132.84;4975831;27;100496;-65
2023/10/28 08:19:03;;;;;;;;;;;;;;;13.97;54.44;99140.19;4965674;27;98184;-72
2023/10/28 08:21:30;;;;;;;;;;;;;;;13.89;54.21;99141.78;4981492;27;98090;-72
2023/10/28 08:23:56;;;;;;;;;;;;;;;13.89;54.54;99151.81;4943286;27;98281;-65
2023/10/28 08:26:24;;;;;;;;;;;;;;;13.85;54.58;99146.25;4992343;27;98434;-72
2023/10/28 08:28:50;;;;;;;;;;;;;;;13.86;54.67;99149.75;4984400;27;98579;-65
2023/10/28 08:31:17;;;;;;;;;;;;;;;13.95;54.24;99151.34;4976124;27;98191;-65
2023/10/28 08:33:44;;;;;;;;;;;;;;;14.07;54.33;99158.00;4965447;27;98166;-72
2023/10/28 08:36:11;;;;;;;;;;;;;;;14.17;54.19;99163.88;5012450;27;97861;-65
2023/10/28 08:38:38;;;;;;;;;;;;;;;14.24;54.10;99160.69;4959132;27;98496;-65
2023/10/28 08:41:05;;;;;;;;;;;;;;;14.30;53.73;99162.09;4961883;27;99186;-72
2023/10/28 08:43:34;;;;;;;;;;;;;;;14.36;54.25;99162.72;4996120;27;99087;-65
2023/10/28 08:46:02;;;;;;;;;;;;;;;14.40;54.12;99163.66;4997429;27;98704;-72
2023/10/28 08:48:29;;;;;;;;;;;;;;;14.44;54.23;99165.41;5006116;27;98100;-72
2023/10/28 08:51:02;;;;;;;;;;;;;;;14.54;53.77;99177.03;4990323;27;98382;-72
2023/10/28 08:53:29;;;;;;;;;;;;;;;14.64;53.68;99173.97;4996740;27;98558;-72
2023/10/28 08:55:56;;;;;;;;;;;;;;;14.75;53.64;99169.00;4990901;27;99612;-65
2023/10/28 08:58:22;;;;;;;;;;;;;;;14.97;53.61;99172.25;4977008;27;98656;-65
2023/10/28 09:00:50;;;;;;;;;;;;;;;15.30;53.03;99176.19;4996014;27;98245;-72
2023/10/28 09:03:16;;;;;;;;;;;;;;;15.55;53.01;99177.13;4988360;27;99558;-72
2023/10/28 09:05:42;;;;;;;;;;;;;;;15.53;53.36;99190.25;4973735;27;98305;-65
2023/10/28 09:08:09;;;;;;;;;;;;;;;15.45;53.58;99192.69;4962381;27;98546;-65
2023/10/28 09:10:35;;;;;;;;;;;;;;;15.41;53.56;99196.41;4983044;27;98149;-65
2023/10/28 09:13:07;;;;;;;;;;;;;;;15.46;53.64;99191.56;4995006;27;99950;-72
2023/10/28 09:15:37;;;;;;;;;;;;;;;15.67;53.24;99196.25;4975171;27;98468;-65
2023/10/28 09:18:03;;;;;;;;;;;;;;;15.80;53.41;99197.09;4978541;27;98383;-64
2023/10/28 09:20:29;;;;;;;;;;;;;;;15.84;53.38;99206.19;5009564;27;98164;-68
2023/10/28 09:22:56;;;;;;;;;;;;;;;15.97;53.37;99199.69;4974627;27;101319;-65
2023/10/28 09:25:22;;;;;;;;;;;;;;;16.19;53.07;99214.81;4994125;27;99807;-65
2023/10/28 09:27:48;;;;;;;;;;;;;;;16.32;52.92;99212.94;4960160;27;98179;-65
2023/10/28 09:30:21;;;;;;;;;;;;;;;16.37;53.09;99210.00;5009392;27;98231;-65
2023/10/28 09:32:48;;;;;;;;;;;;;;;16.34;53.25;99214.19;4973933;27;99878;-72
2023/10/28 09:35:15;;;;;;;;;;;;;;;16.31;53.28;99214.88;4962533;27;99597;-65
2023/10/28 09:37:42;;;;;;;;;;;;;;;16.24;53.53;99220.06;4977779;27;98463;-65
2023/10/28 09:40:14;;;;;;;;;;;;;;;16.17;53.52;99227.94;4964478;27;98269;-65
2023/10/28 09:42:43;;;;;;;;;;;;;;;16.08;53.88;99222.59;4980212;27;98425;-72
2023/10/28 09:45:09;;;;;;;;;;;;;;;15.99;54.04;99230.00;4963450;27;98180;-73
2023/10/28 09:47:54;;;;;;;;;;;;;;;15.94;54.02;99227.50;4981147;27;99773;-65
2023/10/28 09:50:27;;;;;;;;;;;;;;;15.90;53.91;99232.81;5007884;27;99689;-65
2023/10/28 09:52:57;;;;;;;;;;;;;;;16.06;53.73;99235.72;4977097;27;98701;-72
2023/10/28 09:55:31;;;;;;;;;;;;;;;16.01;53.71;99235.94;4975711;27;99668;-65
2023/10/28 09:58:08;;;;;;;;;;;;;;;15.95;53.96;99232.63;5010560;27;98329;-65
2023/10/28 10:00:37;;;;;;;;;;;;;;;15.89;53.89;99231.22;4979368;27;98266;-65
2023/10/28 10:03:16;;;;;;;;;;;;;;;15.85;54.03;99237.66;4991918;27;99676;-65
2023/10/28 10:05:46;;;;;;;;;;;;;;;15.91;54.03;99239.81;5014454;27;98598;-65
2023/10/28 10:08:22;;;;;;;;;;;;;;;16.08;53.78;99233.47;4974947;27;98421;-72
2023/10/28 10:10:53;;;;;;;;;;;;;;;16.17;53.69;99230.66;4996380;27;98392;-73
2023/10/28 10:13:20;;;;;;;;;;;;;;;16.17;53.71;99228.75;4976393;27;98205;-72
2023/10/28 10:16:03;;;;;;;;;;;;;;;16.08;53.85;99228.03;4979337;27;99628;-65
2023/10/28 10:18:32;;;;;;;;;;;;;;;15.98;54.07;99228.44;4976170;27;98057;-65
2023/10/28 10:21:06;;;;;;;;;;;;;;;15.86;54.36;99240.03;4974509;27;98447;-65
2023/10/28 10:23:49;;;;;;;;;;;;;;;15.79;54.41;99253.34;4961281;27;98064;-66
2023/10/28 10:26:28;;;;;;;;;;;;;;;15.70;54.31;99245.28;4958400;27;98352;-66
2023/10/28 10:29:00;;;;;;;;;;;;;;;15.70;54.46;99253.41;4989504;27;99293;-72
2023/10/28 10:31:36;;;;;;;;;;;;;;;15.71;54.19;99254.22;4977960;27;98146;-66
2023/10/28 10:34:07;;;;;;;;;;;;;;;15.64;54.25;99257.44;4978760;27;98553;-66
2023/10/28 10:36:43;;;;;;;;;;;;;;;15.53;54.44;99260.88;4964494;27;99040;-72
2023/10/28 10:39:16;;;;;;;;;;;;;;;15.46;54.70;99258.66;4995345;27;98136;-72
2023/10/28 10:41:46;;;;;;;;;;;;;;;15.42;54.50;99257.72;4976322;27;98407;-65
2023/10/28 10:44:32;;;;;;;;;;;;;;;15.42;54.53;99258.53;4973231;27;99109;-66
2023/10/28 10:46:58;;;;;;;;;;;;;;;15.52;54.39;99257.34;4986614;27;98510;-66
2023/10/28 10:49:25;;;;;;;;;;;;;;;15.56;54.39;99266.44;4975542;27;97924;-72
2023/10/28 10:51:51;;;;;;;;;;;;;;;15.64;54.12;99262.06;4971832;27;98356;-72
2023/10/28 10:54:18;;;;;;;;;;;;;;;15.73;54.12;99262.03;4956908;27;98548;-71
2023/10/28 10:56:45;;;;;;;;;;;;;;;15.76;54.09;99261.38;5004068;27;98892;-65
2023/10/28 10:59:11;;;;;;;;;;;;;;;15.71;54.17;99262.34;4977984;27;99393;-65
2023/10/28 11:01:40;;;;;;;;;;;;;;;15.69;54.00;99259.97;4992288;27;98274;-72
2023/10/28 11:04:08;;;;;;;;;;;;;;;15.80;54.11;99270.44;4993361;27;100672;-65
2023/10/28 11:06:35;;;;;;;;;;;;;;;15.88;54.07;99277.75;4994662;27;97979;-65
2023/10/28 11:09:03;;;;;;;;;;;;;;;16.05;53.85;99274.09;4983094;27;99183;-65
2023/10/28 11:11:30;;;;;;;;;;;;;;;16.19;53.66;99270.00;4991974;27;98479;-65
2023/10/28 11:13:57;;;;;;;;;;;;;;;16.34;53.54;99265.84;4870693;27;3053284;-65
2023/10/28 11:16:26;;;;;;;;;;;;;;;16.58;53.21;99269.78;4978886;27;98372;-65
2023/10/28 11:18:52;;;;;;;;;;;;;;;16.75;53.23;99268.84;4992529;27;98567;-65
2023/10/28 11:21:25;;;;;;;;;;;;;;;16.91;52.73;99261.63;4975848;27;98217;-66
2023/10/28 11:23:54;;;;;;;;;;;;;;;16.96;53.11;99261.38;4960779;27;98536;-72
2023/10/28 11:26:21;;;;;;;;;;;;;;;16.96;53.38;99263.31;4992251;27;98155;-65
2023/10/28 11:28:48;;;;;;;;;;;;;;;16.97;53.43;99265.69;4098495;27;10000999;-72
2023/10/28 11:31:17;;;;;;;;;;;;;;;16.97;53.51;99273.84;4097151;27;10000918;-72
2023/10/28 11:33:44;;;;;;;;;;;;;;;16.91;53.65;99272.50;4971399;27;99832;-65
2023/10/28 11:36:11;;;;;;;;;;;;;;;16.90;53.57;99274.44;4978778;27;98923;-66
2023/10/28 11:38:38;;;;;;;;;;;;;;;16.84;53.92;99277.69;4992571;27;98354;-65
2023/10/28 11:41:05;;;;;;;;;;;;;;;16.76;53.87;99278.59;5008621;27;98280;-65
2023/10/28 11:43:32;;;;;;;;;;;;;;;16.74;53.89;99280.84;4975676;27;98279;-65
2023/10/28 11:45:58;;;;;;;;;;;;;;;16.69;53.82;99268.22;4987744;27;98340;-72
2023/10/28 11:48:25;;;;;;;;;;;;;;;16.67;53.89;99276.72;4974833;27;98402;-72
2023/10/28 11:50:52;;;;;;;;;;;;;;;16.61;53.96;99267.19;4976008;27;98593;-72
2023/10/28 11:53:25;;;;;;;;;;;;;;;16.66;54.08;99277.03;4992909;27;101514;-65
2023/10/28 11:55:51;;;;;;;;;;;;;;;16.74;53.75;99276.22;4981932;27;99565;-72
2023/10/28 11:58:18;;;;;;;;;;;;;;;16.74;53.83;99283.56;4976006;27;99781;-72
2023/10/28 12:00:50;;;;;;;;;;;;;;;16.65;54.10;99278.19;4989688;27;98126;-72
2023/10/28 12:03:17;;;;;;;;;;;;;;;16.56;54.17;99277.50;4975371;27;98411;-65
2023/10/28 12:05:43;;;;;;;;;;;;;;;16.50;54.30;99278.81;4975187;27;98495;-65
2023/10/28 12:08:11;;;;;;;;;;;;;;;16.43;54.42;99269.28;4993195;27;98188;-72
2023/10/28 12:10:44;;;;;;;;;;;;;;;16.50;54.22;99279.59;5009918;27;98337;-72
2023/10/28 12:13:13;;;;;;;;;;;;;;;16.54;54.05;99275.09;4980505;27;98104;-72
2023/10/28 12:15:40;;;;;;;;;;;;;;;16.58;54.13;99270.56;4981433;27;98100;-72
2023/10/28 12:18:08;;;;;;;;;;;;;;;16.79;53.73;99277.91;4962364;27;99792;-71
2023/10/28 12:20:34;;;;;;;;;;;;;;;16.90;53.73;99271.72;4975865;27;98783;-72
2023/10/28 12:23:01;;;;;;;;;;;;;;;16.81;53.95;99265.56;4994922;27;99055;-72
2023/10/28 12:25:28;;;;;;;;;;;;;;;16.73;53.95;99274.59;4981724;27;98903;-72
2023/10/28 12:27:55;;;;;;;;;;;;;;;16.81;53.81;99262.81;4993200;27;99846;-65
2023/10/28 12:30:22;;;;;;;;;;;;;;;17.03;53.62;99277.16;4981098;27;99621;-72
2023/10/28 12:32:49;;;;;;;;;;;;;;;17.29;53.41;99274.91;4957359;27;98494;-72
2023/10/28 12:35:15;;;;;;;;;;;;;;;17.27;53.41;99279.91;4981374;27;100388;-65
2023/10/28 12:37:41;;;;;;;;;;;;;;;17.22;53.84;99269.25;4975322;27;98539;-72
2023/10/28 12:40:09;;;;;;;;;;;;;;;17.19;53.69;99264.47;4984564;27;98282;-65
2023/10/28 12:42:37;;;;;;;;;;;;;;;17.23;53.78;99264.59;4962641;27;98238;-65
2023/10/28 12:45:04;;;;;;;;;;;;;;;17.41;53.63;99265.94;4961645;27;98481;-72
2023/10/28 12:47:31;;;;;;;;;;;;;;;17.42;53.46;99268.31;4951520;27;99245;-72